createdAt,value
2023-06-17T12:14:17.076Z,3.47
2023-06-17T12:16:46.029Z,3.88
2023-06-17T12:19:21.901Z,3.60
2023-06-17T12:21:49.836Z,3.90
2023-06-17T12:24:18.725Z,3.05
2023-06-17T12:26:46.765Z,3.70
2023-06-17T12:29:25.634Z,3.22
2023-06-17T12:31:54.651Z,3.00
2023-06-17T12:34:22.686Z,3.83
2023-06-17T12:36:50.770Z,3.20
2023-06-17T12:39:18.712Z,2.75
2023-06-17T12:41:46.670Z,3.35
2023-06-17T12:44:18.686Z,3.60
2023-06-17T12:46:47.046Z,3.08
2023-06-17T12:49:15.011Z,2.72
2023-06-17T12:51:42.938Z,2.75
2023-06-17T12:54:10.953Z,2.45
2023-06-17T12:56:40.650Z,2.63
2023-06-17T12:59:08.689Z,2.92
2023-06-17T13:01:38.075Z,2.42
2023-06-17T13:04:06.176Z,2.83
2023-06-17T13:06:34.260Z,2.47
2023-06-17T13:09:02.264Z,2.70
2023-06-17T13:11:30.197Z,2.50
2023-06-17T13:13:58.464Z,2.75
2023-06-17T13:16:26.446Z,2.40
2023-06-17T13:18:57.159Z,2.75
2023-06-17T13:21:25.570Z,2.72
2023-06-17T13:23:53.623Z,2.30
2023-06-17T13:26:29.262Z,2.13
2023-06-17T13:28:57.332Z,2.40
2023-06-17T13:31:25.290Z,2.50
2023-06-17T13:33:53.264Z,2.28
2023-06-17T13:36:22.599Z,2.92
2023-06-17T13:38:50.621Z,2.00
2023-06-17T13:41:18.515Z,2.38
2023-06-17T13:43:46.683Z,2.33
2023-06-17T13:46:14.788Z,2.15
2023-06-17T13:48:43.108Z,2.30
2023-06-17T13:51:11.025Z,3.00
2023-06-17T13:53:40.310Z,2.40
2023-06-17T13:56:08.209Z,2.92
2023-06-17T13:58:36.319Z,1.92
2023-06-17T14:01:04.283Z,2.47
2023-06-17T14:03:32.680Z,2.35
2023-06-17T14:06:00.714Z,2.20
2023-06-17T14:08:28.757Z,3.20
2023-06-17T14:10:58.815Z,2.00
2023-06-17T14:13:27.048Z,2.10
2023-06-17T14:15:55.001Z,2.10
2023-06-17T14:18:22.977Z,2.33
2023-06-17T14:20:50.965Z,2.00
2023-06-17T14:23:18.870Z,2.03
2023-06-17T14:25:46.875Z,2.10
2023-06-17T14:28:17.431Z,2.35
2023-06-17T14:30:45.596Z,2.33
2023-06-17T14:33:13.526Z,2.08
2023-06-17T14:35:43.349Z,2.50
2023-06-17T14:38:11.582Z,2.60
2023-06-17T14:40:39.727Z,2.08
2023-06-17T14:43:08.335Z,2.25
2023-06-17T14:45:37.873Z,2.30
2023-06-17T14:48:06.365Z,2.10
2023-06-17T14:50:34.372Z,2.38
2023-06-17T14:53:02.556Z,2.03
2023-06-17T14:55:30.487Z,1.88
2023-06-17T14:57:58.373Z,2.40
2023-06-17T15:00:26.331Z,2.20
2023-06-17T15:02:58.092Z,2.03
2023-06-17T15:05:28.488Z,2.20
2023-06-17T15:07:56.465Z,1.90
2023-06-17T15:10:24.836Z,2.03
2023-06-17T15:12:52.904Z,1.98
2023-06-17T15:15:21.037Z,2.28
2023-06-17T15:17:49.293Z,1.88
2023-06-17T15:20:20.829Z,2.17
2023-06-17T15:22:49.139Z,2.33
2023-06-17T15:25:17.171Z,2.28
2023-06-17T15:27:45.138Z,2.20
2023-06-17T15:30:13.941Z,2.30
2023-06-17T15:32:42.474Z,2.08
2023-06-17T15:35:10.787Z,1.95
2023-06-17T15:37:40.134Z,2.22
2023-06-17T15:40:09.410Z,1.88
2023-06-17T15:42:39.496Z,2.10
2023-06-17T15:45:08.240Z,2.60
2023-06-17T15:47:36.228Z,2.08
2023-06-17T15:50:04.308Z,2.20
2023-06-17T15:52:32.223Z,1.90
2023-06-17T15:55:02.518Z,1.98
2023-06-17T15:57:30.509Z,1.77
2023-06-17T15:59:58.836Z,2.13
2023-06-17T16:02:27.836Z,2.25
2023-06-17T16:04:55.864Z,1.88
2023-06-17T16:07:23.916Z,2.30
2023-06-17T16:09:53.558Z,2.10
2023-06-17T16:12:23.935Z,2.20
2023-06-17T16:14:51.908Z,2.17
2023-06-17T16:17:21.503Z,1.83
2023-06-17T16:19:49.528Z,2.08
2023-06-17T16:22:17.866Z,2.38
2023-06-17T16:24:45.789Z,2.05
2023-06-17T16:27:13.707Z,1.88
2023-06-17T16:29:43.073Z,2.58
2023-06-17T16:32:11.203Z,2.20
2023-06-17T16:34:39.491Z,1.90
2023-06-17T16:37:07.673Z,2.00
2023-06-17T16:39:35.668Z,2.17
2023-06-17T16:42:06.907Z,1.73
2023-06-17T16:44:35.984Z,1.90
2023-06-17T16:47:06.255Z,1.77
2023-06-17T16:49:34.160Z,1.70
2023-06-17T16:52:02.223Z,2.30
2023-06-17T16:54:30.142Z,2.00
2023-06-17T16:56:58.047Z,1.95
2023-06-17T16:59:26.072Z,2.70
2023-06-17T17:01:54.259Z,1.92
2023-06-17T17:04:23.557Z,2.17
2023-06-17T17:06:51.474Z,2.58
2023-06-17T17:09:19.668Z,2.40
2023-06-17T17:11:47.577Z,2.30
2023-06-17T17:14:15.617Z,2.10
2023-06-17T17:16:43.599Z,2.20
2023-06-17T17:19:11.538Z,3.50
2023-06-17T17:21:40.848Z,4.47
2023-06-17T17:24:08.902Z,5.70
2023-06-17T17:26:36.887Z,5.10
2023-06-17T17:29:04.963Z,4.38
2023-06-17T17:31:32.943Z,4.30
2023-06-17T17:34:01.717Z,3.83
2023-06-17T17:36:29.713Z,3.60
2023-06-17T17:39:00.087Z,3.47
2023-06-17T17:41:29.756Z,3.28
2023-06-17T17:43:57.733Z,3.45
2023-06-17T17:46:26.148Z,3.25
2023-06-17T17:48:54.179Z,3.28
2023-06-17T17:51:22.125Z,4.10
2023-06-17T17:53:50.030Z,3.08
2023-06-17T17:56:19.471Z,3.13
2023-06-17T17:58:47.583Z,3.00
2023-06-17T18:01:15.606Z,2.67
2023-06-17T18:03:43.669Z,2.63
2023-06-17T18:06:11.750Z,2.92
2023-06-17T18:08:39.658Z,5.10
2023-06-17T18:11:07.571Z,3.83
2023-06-17T18:13:36.848Z,3.80
2023-06-17T18:16:05.084Z,2.97
2023-06-17T18:18:33.082Z,3.13
2023-06-17T18:21:01.009Z,3.35
2023-06-17T18:23:28.941Z,3.33
2023-06-17T18:25:57.772Z,2.95
2023-06-17T18:28:25.646Z,2.75
2023-06-17T18:30:54.929Z,2.65
2023-06-17T18:33:22.976Z,2.80
2023-06-17T18:35:51.134Z,2.70
2023-06-17T18:38:19.044Z,4.43
2023-06-17T18:40:47.432Z,4.03
2023-06-17T18:43:15.522Z,3.30
2023-06-17T18:45:43.390Z,3.65
2023-06-17T18:48:12.638Z,4.70
2023-06-17T18:50:40.638Z,5.05
2023-06-17T18:53:08.622Z,5.00
2023-06-17T18:55:38.440Z,4.38
2023-06-17T18:58:06.331Z,4.00
2023-06-17T19:00:35.090Z,3.20
2023-06-17T19:03:03.523Z,2.88
2023-06-17T19:05:33.032Z,3.55
2023-06-17T19:08:01.042Z,3.58
2023-06-17T19:10:28.997Z,3.17
2023-06-17T19:12:57.044Z,2.65
2023-06-17T19:15:27.354Z,2.45
2023-06-17T19:17:55.962Z,2.85
2023-06-17T19:20:24.291Z,2.50
2023-06-17T19:22:53.561Z,2.28
2023-06-17T19:25:21.471Z,3.08
2023-06-17T19:27:49.370Z,3.10
2023-06-17T19:30:17.325Z,3.05
2023-06-17T19:32:45.257Z,3.10
2023-06-17T19:35:13.482Z,2.50
2023-06-17T19:37:41.907Z,2.58
2023-06-17T19:40:12.912Z,2.65
2023-06-17T19:42:40.789Z,3.22
2023-06-17T19:45:10.810Z,2.95
2023-06-17T19:47:38.952Z,2.83
2023-06-17T19:50:08.023Z,2.97
2023-06-17T19:52:35.933Z,2.65
2023-06-17T19:55:04.090Z,3.00
2023-06-17T19:57:33.567Z,2.53
2023-06-17T20:00:01.493Z,2.90
2023-06-17T20:02:29.515Z,2.97
2023-06-17T20:04:57.484Z,3.15
2023-06-17T20:07:25.580Z,3.70
2023-06-17T20:09:53.738Z,3.38
2023-06-17T20:12:21.643Z,3.10
2023-06-17T20:14:51.400Z,3.40
2023-06-17T20:17:19.316Z,3.55
2023-06-17T20:19:47.250Z,3.33
2023-06-17T20:22:15.182Z,4.45
2023-06-17T20:24:43.181Z,3.75
2023-06-17T20:27:11.156Z,4.00
2023-06-17T20:29:39.162Z,3.78
2023-06-17T20:32:09.021Z,3.85
2023-06-17T20:34:36.957Z,3.85
2023-06-17T20:37:05.493Z,3.28
2023-06-17T20:39:33.437Z,3.17
2023-06-17T20:42:01.336Z,3.25
2023-06-17T20:44:30.750Z,3.50
2023-06-17T20:47:00.676Z,3.33
2023-06-17T20:49:31.235Z,3.22
2023-06-17T20:52:00.368Z,3.65
2023-06-17T20:54:28.578Z,3.20
2023-06-17T20:56:56.635Z,3.95
2023-06-17T20:59:25.444Z,3.67
2023-06-17T21:01:53.729Z,3.60
2023-06-17T21:04:21.682Z,4.13
2023-06-17T21:06:50.986Z,4.45
2023-06-17T21:09:18.929Z,4.00
2023-06-17T21:11:46.905Z,4.35
2023-06-17T21:14:14.864Z,4.13
2023-06-17T21:16:42.906Z,4.07
2023-06-17T21:19:10.882Z,3.67
2023-06-17T21:21:38.839Z,3.65
2023-06-17T21:24:08.934Z,4.05
2023-06-17T21:26:36.870Z,3.50
2023-06-17T21:29:04.930Z,3.78
2023-06-17T21:31:32.858Z,3.97
2023-06-17T21:34:00.827Z,3.85
2023-06-17T21:36:29.647Z,3.17
2023-06-17T21:38:57.547Z,3.33
2023-06-17T21:41:27.658Z,3.72
2023-06-17T21:43:55.626Z,4.43
2023-06-17T21:46:27.103Z,3.58
2023-06-17T21:48:55.117Z,3.47
2023-06-17T21:51:23.054Z,4.03
2023-06-17T21:53:50.970Z,3.35
2023-06-17T21:56:19.005Z,4.07
2023-06-17T21:58:48.284Z,3.85
2023-06-17T22:01:16.560Z,3.90
2023-06-17T22:03:44.774Z,3.30
2023-06-17T22:06:12.743Z,4.03
2023-06-17T22:08:43.686Z,3.80
2023-06-17T22:11:12.520Z,3.42
2023-06-17T22:13:40.740Z,3.53
2023-06-17T22:16:12.420Z,3.90
2023-06-17T22:18:40.551Z,3.72
2023-06-17T22:21:08.530Z,3.78
2023-06-17T22:23:36.416Z,3.55
2023-06-17T22:26:04.345Z,3.63
2023-06-17T22:28:32.289Z,3.75
2023-06-17T22:31:00.184Z,3.95
2023-06-17T22:33:29.458Z,3.50
2023-06-17T22:35:57.421Z,3.67
